sensor_id;sensor_type;location;lat;lon;timestamp;temperature;humidity
292;DHT22;23311;48.776;9.162;2023-05-21T00:00:39;16.30;95.50
292;DHT22;23311;48.776;9.162;2023-05-21T00:03:07;16.20;95.50
292;DHT22;23311;48.776;9.162;2023-05-21T00:05:40;16.20;95.50
292;DHT22;23311;48.776;9.162;2023-05-21T00:08:08;16.10;95.50
292;DHT22;23311;48.776;9.162;2023-05-21T00:10:38;16.10;95.50
292;DHT22;23311;48.776;9.162;2023-05-21T00:13:06;16.10;95.50
292;DHT22;23311;48.776;9.162;2023-05-21T00:15:35;16.10;95.50
292;DHT22;23311;48.776;9.162;2023-05-21T00:18:03;16.00;95.50
292;DHT22;23311;48.776;9.162;2023-05-21T00:20:31;16.00;95.50
292;DHT22;23311;48.776;9.162;2023-05-21T00:23:00;16.00;95.50
292;DHT22;23311;48.776;9.162;2023-05-21T00:25:30;16.00;95.50
292;DHT22;23311;48.776;9.162;2023-05-21T00:28:00;15.90;95.50
292;DHT22;23311;48.776;9.162;2023-05-21T00:30:28;15.90;95.50
292;DHT22;23311;48.776;9.162;2023-05-21T00:32:56;15.90;95.50
292;DHT22;23311;48.776;9.162;2023-05-21T00:35:28;15.90;95.50
292;DHT22;23311;48.776;9.162;2023-05-21T00:37:57;15.90;95.50
292;DHT22;23311;48.776;9.162;2023-05-21T00:40:26;15.90;95.50
292;DHT22;23311;48.776;9.162;2023-05-21T00:42:54;15.90;95.50
292;DHT22;23311;48.776;9.162;2023-05-21T00:45:24;16.00;95.50
292;DHT22;23311;48.776;9.162;2023-05-21T00:47:52;16.00;95.50
292;DHT22;23311;48.776;9.162;2023-05-21T00:50:21;15.90;95.50
292;DHT22;23311;48.776;9.162;2023-05-21T00:52:50;15.90;95.50
292;DHT22;23311;48.776;9.162;2023-05-21T00:55:18;15.80;95.50
292;DHT22;23311;48.776;9.162;2023-05-21T00:57:46;15.80;95.50
292;DHT22;23311;48.776;9.162;2023-05-21T01:00:15;15.80;95.50
292;DHT22;23311;48.776;9.162;2023-05-21T01:02:45;15.80;95.50
292;DHT22;23311;48.776;9.162;2023-05-21T01:05:13;15.70;95.50
292;DHT22;23311;48.776;9.162;2023-05-21T01:07:42;15.70;95.50
292;DHT22;23311;48.776;9.162;2023-05-21T01:10:10;15.80;95.50
292;DHT22;23311;48.776;9.162;2023-05-21T01:12:41;15.70;95.50
292;DHT22;23311;48.776;9.162;2023-05-21T01:15:10;15.80;95.50
292;DHT22;23311;48.776;9.162;2023-05-21T01:17:39;15.80;95.50
292;DHT22;23311;48.776;9.162;2023-05-21T01:20:10;15.80;95.50
292;DHT22;23311;48.776;9.162;2023-05-21T01:25:11;15.60;95.50
292;DHT22;23311;48.776;9.162;2023-05-21T01:27:40;15.60;95.50
292;DHT22;23311;48.776;9.162;2023-05-21T01:30:10;15.60;95.50
292;DHT22;23311;48.776;9.162;2023-05-21T01:32:44;15.60;95.50
292;DHT22;23311;48.776;9.162;2023-05-21T01:35:19;15.60;95.50
292;DHT22;23311;48.776;9.162;2023-05-21T01:37:51;15.60;95.50
292;DHT22;23311;48.776;9.162;2023-05-21T01:40:26;15.50;95.50
292;DHT22;23311;48.776;9.162;2023-05-21T01:42:57;15.40;95.50
292;DHT22;23311;48.776;9.162;2023-05-21T01:45:27;15.40;95.50
292;DHT22;23311;48.776;9.162;2023-05-21T01:47:58;15.30;95.50
292;DHT22;23311;48.776;9.162;2023-05-21T01:50:28;15.30;95.50
292;DHT22;23311;48.776;9.162;2023-05-21T01:52:57;15.30;95.50
292;DHT22;23311;48.776;9.162;2023-05-21T01:55:28;15.30;95.50
292;DHT22;23311;48.776;9.162;2023-05-21T01:57:57;15.30;95.50
292;DHT22;23311;48.776;9.162;2023-05-21T02:00:28;15.30;95.50
292;DHT22;23311;48.776;9.162;2023-05-21T02:02:58;15.30;95.50
292;DHT22;23311;48.776;9.162;2023-05-21T02:05:26;15.30;95.50
292;DHT22;23311;48.776;9.162;2023-05-21T02:07:54;15.20;95.50
292;DHT22;23311;48.776;9.162;2023-05-21T02:10:23;15.10;95.50
292;DHT22;23311;48.776;9.162;2023-05-21T02:12:52;15.00;95.50
292;DHT22;23311;48.776;9.162;2023-05-21T02:15:20;15.00;95.50
292;DHT22;23311;48.776;9.162;2023-05-21T02:17:50;15.00;95.50
292;DHT22;23311;48.776;9.162;2023-05-21T02:20:19;14.90;95.50
292;DHT22;23311;48.776;9.162;2023-05-21T02:22:48;14.90;95.50
292;DHT22;23311;48.776;9.162;2023-05-21T02:25:17;15.00;95.50
292;DHT22;23311;48.776;9.162;2023-05-21T02:27:45;15.00;95.50
292;DHT22;23311;48.776;9.162;2023-05-21T02:30:15;15.10;95.50
292;DHT22;23311;48.776;9.162;2023-05-21T02:32:43;15.00;95.50
292;DHT22;23311;48.776;9.162;2023-05-21T02:35:12;14.90;95.50
292;DHT22;23311;48.776;9.162;2023-05-21T02:37:40;14.90;95.50
292;DHT22;23311;48.776;9.162;2023-05-21T02:40:10;14.80;95.50
292;DHT22;23311;48.776;9.162;2023-05-21T02:42:39;14.80;95.50
292;DHT22;23311;48.776;9.162;2023-05-21T02:45:08;14.80;95.50
292;DHT22;23311;48.776;9.162;2023-05-21T02:47:39;14.80;95.50
292;DHT22;23311;48.776;9.162;2023-05-21T02:50:08;14.70;95.50
292;DHT22;23311;48.776;9.162;2023-05-21T02:52:36;14.80;95.50
292;DHT22;23311;48.776;9.162;2023-05-21T02:55:05;14.70;95.50
292;DHT22;23311;48.776;9.162;2023-05-21T02:57:33;14.60;95.50
292;DHT22;23311;48.776;9.162;2023-05-21T03:00:02;14.70;95.50
292;DHT22;23311;48.776;9.162;2023-05-21T03:02:31;14.70;95.50
292;DHT22;23311;48.776;9.162;2023-05-21T03:05:01;14.70;95.50
292;DHT22;23311;48.776;9.162;2023-05-21T03:07:29;14.60;95.50
292;DHT22;23311;48.776;9.162;2023-05-21T03:09:58;14.60;95.50
292;DHT22;23311;48.776;9.162;2023-05-21T03:12:26;14.60;95.50
292;DHT22;23311;48.776;9.162;2023-05-21T03:14:54;14.60;95.50
292;DHT22;23311;48.776;9.162;2023-05-21T03:17:22;14.50;95.50
292;DHT22;23311;48.776;9.162;2023-05-21T03:19:50;14.50;95.50
292;DHT22;23311;48.776;9.162;2023-05-21T03:22:21;14.60;95.50
292;DHT22;23311;48.776;9.162;2023-05-21T03:24:49;14.60;95.50
292;DHT22;23311;48.776;9.162;2023-05-21T03:27:19;14.60;95.50
292;DHT22;23311;48.776;9.162;2023-05-21T03:29:47;14.60;95.50
292;DHT22;23311;48.776;9.162;2023-05-21T03:32:15;14.60;95.50
292;DHT22;23311;48.776;9.162;2023-05-21T03:34:44;14.60;95.50
292;DHT22;23311;48.776;9.162;2023-05-21T03:37:12;14.60;95.50
292;DHT22;23311;48.776;9.162;2023-05-21T03:39:41;14.50;95.50
292;DHT22;23311;48.776;9.162;2023-05-21T03:42:09;14.60;95.50
292;DHT22;23311;48.776;9.162;2023-05-21T03:44:39;14.50;95.50
292;DHT22;23311;48.776;9.162;2023-05-21T03:47:07;14.30;95.50
292;DHT22;23311;48.776;9.162;2023-05-21T03:49:35;14.30;95.50
292;DHT22;23311;48.776;9.162;2023-05-21T03:52:04;14.30;95.50
292;DHT22;23311;48.776;9.162;2023-05-21T03:54:32;14.30;95.50
292;DHT22;23311;48.776;9.162;2023-05-21T03:57:01;14.30;95.50
292;DHT22;23311;48.776;9.162;2023-05-21T03:59:29;14.30;95.50
292;DHT22;23311;48.776;9.162;2023-05-21T04:01:57;14.30;95.50
292;DHT22;23311;48.776;9.162;2023-05-21T04:04:25;14.30;95.50
292;DHT22;23311;48.776;9.162;2023-05-21T04:06:55;14.30;95.50
292;DHT22;23311;48.776;9.162;2023-05-21T04:09:23;14.40;95.50
292;DHT22;23311;48.776;9.162;2023-05-21T04:11:51;14.50;95.50
292;DHT22;23311;48.776;9.162;2023-05-21T04:14:21;14.60;95.50
292;DHT22;23311;48.776;9.162;2023-05-21T04:16:49;14.60;95.50
292;DHT22;23311;48.776;9.162;2023-05-21T04:19:17;14.50;95.50
292;DHT22;23311;48.776;9.162;2023-05-21T04:21:45;14.50;95.50
292;DHT22;23311;48.776;9.162;2023-05-21T04:24:13;14.50;95.50
292;DHT22;23311;48.776;9.162;2023-05-21T04:26:41;14.60;95.50
292;DHT22;23311;48.776;9.162;2023-05-21T04:29:10;14.70;95.50
292;DHT22;23311;48.776;9.162;2023-05-21T04:31:39;14.70;95.50
292;DHT22;23311;48.776;9.162;2023-05-21T04:34:08;14.80;95.50
292;DHT22;23311;48.776;9.162;2023-05-21T04:36:36;14.90;95.50
292;DHT22;23311;48.776;9.162;2023-05-21T04:39:04;14.90;95.50
292;DHT22;23311;48.776;9.162;2023-05-21T04:41:33;15.00;95.50
292;DHT22;23311;48.776;9.162;2023-05-21T04:44:02;15.00;95.50
292;DHT22;23311;48.776;9.162;2023-05-21T04:46:30;15.00;95.50
292;DHT22;23311;48.776;9.162;2023-05-21T04:49:02;15.00;95.50
292;DHT22;23311;48.776;9.162;2023-05-21T04:51:30;15.00;95.50
292;DHT22;23311;48.776;9.162;2023-05-21T04:53:59;15.10;95.50
292;DHT22;23311;48.776;9.162;2023-05-21T04:56:27;15.10;95.50
292;DHT22;23311;48.776;9.162;2023-05-21T04:58:55;15.10;95.50
292;DHT22;23311;48.776;9.162;2023-05-21T05:01:24;15.10;95.50
292;DHT22;23311;48.776;9.162;2023-05-21T05:03:55;15.20;95.50
292;DHT22;23311;48.776;9.162;2023-05-21T05:06:24;15.20;95.50
292;DHT22;23311;48.776;9.162;2023-05-21T05:08:52;15.30;95.50
292;DHT22;23311;48.776;9.162;2023-05-21T05:11:20;15.30;95.50
292;DHT22;23311;48.776;9.162;2023-05-21T05:13:49;15.40;95.50
292;DHT22;23311;48.776;9.162;2023-05-21T05:16:17;15.40;95.50
292;DHT22;23311;48.776;9.162;2023-05-21T05:18:51;15.40;95.50
292;DHT22;23311;48.776;9.162;2023-05-21T05:21:21;15.40;95.50
292;DHT22;23311;48.776;9.162;2023-05-21T05:23:50;15.60;95.50
292;DHT22;23311;48.776;9.162;2023-05-21T05:26:19;15.60;95.50
292;DHT22;23311;48.776;9.162;2023-05-21T05:28:47;15.70;95.50
292;DHT22;23311;48.776;9.162;2023-05-21T05:31:15;15.70;95.50
292;DHT22;23311;48.776;9.162;2023-05-21T05:33:43;15.80;95.50
292;DHT22;23311;48.776;9.162;2023-05-21T05:36:11;15.90;95.50
292;DHT22;23311;48.776;9.162;2023-05-21T05:38:39;16.10;95.50
292;DHT22;23311;48.776;9.162;2023-05-21T05:41:09;16.20;95.50
292;DHT22;23311;48.776;9.162;2023-05-21T05:43:37;16.30;95.50
292;DHT22;23311;48.776;9.162;2023-05-21T05:46:05;16.40;95.50
292;DHT22;23311;48.776;9.162;2023-05-21T05:48:33;16.50;95.50
292;DHT22;23311;48.776;9.162;2023-05-21T05:51:01;16.70;95.50
292;DHT22;23311;48.776;9.162;2023-05-21T05:53:29;16.60;95.50
292;DHT22;23311;48.776;9.162;2023-05-21T05:55:58;16.70;95.50
292;DHT22;23311;48.776;9.162;2023-05-21T05:58:28;16.90;95.50
292;DHT22;23311;48.776;9.162;2023-05-21T06:00:56;17.10;95.50
292;DHT22;23311;48.776;9.162;2023-05-21T06:03:25;17.30;95.50
292;DHT22;23311;48.776;9.162;2023-05-21T06:05:54;17.30;95.50
292;DHT22;23311;48.776;9.162;2023-05-21T06:08:22;17.20;95.50
292;DHT22;23311;48.776;9.162;2023-05-21T06:10:50;17.40;95.50
292;DHT22;23311;48.776;9.162;2023-05-21T06:13:18;17.60;95.50
292;DHT22;23311;48.776;9.162;2023-05-21T06:15:48;17.50;95.50
292;DHT22;23311;48.776;9.162;2023-05-21T06:18:16;17.60;95.50
292;DHT22;23311;48.776;9.162;2023-05-21T06:20:44;17.70;95.50
292;DHT22;23311;48.776;9.162;2023-05-21T06:23:12;17.90;95.50
292;DHT22;23311;48.776;9.162;2023-05-21T06:25:40;18.10;95.50
292;DHT22;23311;48.776;9.162;2023-05-21T06:28:08;18.30;95.50
292;DHT22;23311;48.776;9.162;2023-05-21T06:30:36;18.60;95.50
292;DHT22;23311;48.776;9.162;2023-05-21T06:33:05;19.00;95.50
292;DHT22;23311;48.776;9.162;2023-05-21T06:35:34;19.00;95.50
292;DHT22;23311;48.776;9.162;2023-05-21T06:38:03;19.40;95.50
292;DHT22;23311;48.776;9.162;2023-05-21T06:40:31;19.30;95.50
292;DHT22;23311;48.776;9.162;2023-05-21T06:42:59;19.50;95.50
292;DHT22;23311;48.776;9.162;2023-05-21T06:45:27;19.60;95.50
292;DHT22;23311;48.776;9.162;2023-05-21T06:47:55;19.90;95.50
292;DHT22;23311;48.776;9.162;2023-05-21T06:50:25;19.90;95.50
292;DHT22;23311;48.776;9.162;2023-05-21T06:52:53;20.50;95.50
292;DHT22;23311;48.776;9.162;2023-05-21T06:55:21;20.50;95.50
292;DHT22;23311;48.776;9.162;2023-05-21T06:57:49;20.80;95.50
292;DHT22;23311;48.776;9.162;2023-05-21T07:00:17;20.90;95.50
292;DHT22;23311;48.776;9.162;2023-05-21T07:02:45;21.20;94.50
292;DHT22;23311;48.776;9.162;2023-05-21T07:05:13;21.20;94.40
292;DHT22;23311;48.776;9.162;2023-05-21T07:07:43;21.90;93.10
292;DHT22;23311;48.776;9.162;2023-05-21T07:10:11;22.20;91.40
292;DHT22;23311;48.776;9.162;2023-05-21T07:12:39;22.60;90.60
292;DHT22;23311;48.776;9.162;2023-05-21T07:15:08;22.50;90.40
292;DHT22;23311;48.776;9.162;2023-05-21T07:17:36;23.10;89.00
292;DHT22;23311;48.776;9.162;2023-05-21T07:20:05;22.70;89.70
292;DHT22;23311;48.776;9.162;2023-05-21T07:22:35;23.20;88.80
292;DHT22;23311;48.776;9.162;2023-05-21T07:25:06;24.00;86.40
292;DHT22;23311;48.776;9.162;2023-05-21T07:27:34;23.60;86.30
292;DHT22;23311;48.776;9.162;2023-05-21T07:30:03;23.70;86.60
292;DHT22;23311;48.776;9.162;2023-05-21T07:32:31;23.90;86.10
292;DHT22;23311;48.776;9.162;2023-05-21T07:34:59;23.80;86.30
292;DHT22;23311;48.776;9.162;2023-05-21T07:37:28;23.90;85.60
292;DHT22;23311;48.776;9.162;2023-05-21T07:39:57;22.90;88.80
292;DHT22;23311;48.776;9.162;2023-05-21T07:42:26;24.00;86.20
292;DHT22;23311;48.776;9.162;2023-05-21T07:44:54;24.90;83.50
292;DHT22;23311;48.776;9.162;2023-05-21T07:47:22;25.30;82.60
292;DHT22;23311;48.776;9.162;2023-05-21T07:49:50;25.10;82.90
292;DHT22;23311;48.776;9.162;2023-05-21T07:52:18;25.60;81.70
292;DHT22;23311;48.776;9.162;2023-05-21T07:54:46;26.60;79.00
292;DHT22;23311;48.776;9.162;2023-05-21T07:57:15;27.40;76.60
292;DHT22;23311;48.776;9.162;2023-05-21T07:59:44;27.40;75.90
292;DHT22;23311;48.776;9.162;2023-05-21T08:02:12;28.00;75.10
292;DHT22;23311;48.776;9.162;2023-05-21T08:04:40;27.90;74.50
292;DHT22;23311;48.776;9.162;2023-05-21T08:07:10;27.30;75.90
292;DHT22;23311;48.776;9.162;2023-05-21T08:09:41;27.50;75.60
292;DHT22;23311;48.776;9.162;2023-05-21T08:12:09;28.00;73.80
292;DHT22;23311;48.776;9.162;2023-05-21T08:14:41;28.70;73.10
292;DHT22;23311;48.776;9.162;2023-05-21T08:17:10;29.30;71.90
292;DHT22;23311;48.776;9.162;2023-05-21T08:19:39;29.20;71.30
292;DHT22;23311;48.776;9.162;2023-05-21T08:22:07;29.00;72.20
292;DHT22;23311;48.776;9.162;2023-05-21T08:24:35;29.30;71.10
292;DHT22;23311;48.776;9.162;2023-05-21T08:27:04;29.30;70.80
292;DHT22;23311;48.776;9.162;2023-05-21T08:29:33;29.60;70.60
292;DHT22;23311;48.776;9.162;2023-05-21T08:32:01;29.10;70.90
292;DHT22;23311;48.776;9.162;2023-05-21T08:34:31;29.00;71.40
292;DHT22;23311;48.776;9.162;2023-05-21T08:36:59;29.70;69.80
292;DHT22;23311;48.776;9.162;2023-05-21T08:39:27;29.60;69.60
292;DHT22;23311;48.776;9.162;2023-05-21T08:42:01;29.60;69.80
292;DHT22;23311;48.776;9.162;2023-05-21T08:44:32;29.40;69.60
292;DHT22;23311;48.776;9.162;2023-05-21T08:47:06;29.20;70.20
292;DHT22;23311;48.776;9.162;2023-05-21T08:49:38;29.80;69.60
292;DHT22;23311;48.776;9.162;2023-05-21T08:52:08;30.30;68.30
292;DHT22;23311;48.776;9.162;2023-05-21T08:54:36;30.40;68.40
292;DHT22;23311;48.776;9.162;2023-05-21T08:57:05;30.00;68.60
292;DHT22;23311;48.776;9.162;2023-05-21T08:59:34;28.90;70.90
292;DHT22;23311;48.776;9.162;2023-05-21T09:02:05;29.80;69.00
292;DHT22;23311;48.776;9.162;2023-05-21T09:04:34;29.90;68.80
292;DHT22;23311;48.776;9.162;2023-05-21T09:07:06;30.20;68.40
292;DHT22;23311;48.776;9.162;2023-05-21T09:09:44;30.90;66.90
292;DHT22;23311;48.776;9.162;2023-05-21T09:12:14;30.30;67.70
292;DHT22;23311;48.776;9.162;2023-05-21T09:14:42;29.30;68.60
292;DHT22;23311;48.776;9.162;2023-05-21T09:17:12;29.70;68.70
292;DHT22;23311;48.776;9.162;2023-05-21T09:20:08;29.70;68.50
292;DHT22;23311;48.776;9.162;2023-05-21T09:22:43;29.00;69.80
292;DHT22;23311;48.776;9.162;2023-05-21T09:25:13;29.40;69.40
292;DHT22;23311;48.776;9.162;2023-05-21T09:27:42;29.00;69.60
292;DHT22;23311;48.776;9.162;2023-05-21T09:30:11;27.70;71.70
292;DHT22;23311;48.776;9.162;2023-05-21T09:32:40;26.60;74.50
292;DHT22;23311;48.776;9.162;2023-05-21T09:35:10;26.70;74.70
292;DHT22;23311;48.776;9.162;2023-05-21T09:37:39;26.20;75.10
292;DHT22;23311;48.776;9.162;2023-05-21T09:40:12;26.10;75.80
292;DHT22;23311;48.776;9.162;2023-05-21T09:42:43;25.90;75.80
292;DHT22;23311;48.776;9.162;2023-05-21T09:45:16;26.20;75.10
292;DHT22;23311;48.776;9.162;2023-05-21T09:47:45;26.10;75.40
292;DHT22;23311;48.776;9.162;2023-05-21T09:50:18;26.50;74.40
292;DHT22;23311;48.776;9.162;2023-05-21T09:52:46;26.70;73.40
292;DHT22;23311;48.776;9.162;2023-05-21T09:55:20;26.80;73.90
292;DHT22;23311;48.776;9.162;2023-05-21T09:57:49;27.50;72.10
292;DHT22;23311;48.776;9.162;2023-05-21T10:00:18;27.90;70.90
292;DHT22;23311;48.776;9.162;2023-05-21T10:02:48;28.10;70.00
292;DHT22;23311;48.776;9.162;2023-05-21T10:05:16;27.40;71.00
292;DHT22;23311;48.776;9.162;2023-05-21T10:07:48;26.90;72.40
292;DHT22;23311;48.776;9.162;2023-05-21T10:10:19;27.30;71.80
292;DHT22;23311;48.776;9.162;2023-05-21T10:12:52;28.10;70.70
292;DHT22;23311;48.776;9.162;2023-05-21T10:15:23;28.50;69.40
292;DHT22;23311;48.776;9.162;2023-05-21T10:17:51;28.50;69.80
292;DHT22;23311;48.776;9.162;2023-05-21T10:20:22;28.10;70.10
292;DHT22;23311;48.776;9.162;2023-05-21T10:22:50;27.90;70.90
292;DHT22;23311;48.776;9.162;2023-05-21T10:25:22;28.00;70.90
292;DHT22;23311;48.776;9.162;2023-05-21T10:27:53;26.70;73.20
292;DHT22;23311;48.776;9.162;2023-05-21T10:30:23;27.00;73.20
292;DHT22;23311;48.776;9.162;2023-05-21T10:32:52;26.60;73.30
292;DHT22;23311;48.776;9.162;2023-05-21T10:35:22;26.30;74.20
292;DHT22;23311;48.776;9.162;2023-05-21T10:37:52;26.30;74.40
292;DHT22;23311;48.776;9.162;2023-05-21T10:40:22;26.50;74.10
292;DHT22;23311;48.776;9.162;2023-05-21T10:43:09;26.20;74.60
292;DHT22;23311;48.776;9.162;2023-05-21T10:45:57;25.90;75.60
292;DHT22;23311;48.776;9.162;2023-05-21T10:48:38;25.80;76.20
292;DHT22;23311;48.776;9.162;2023-05-21T10:51:34;26.30;75.30
292;DHT22;23311;48.776;9.162;2023-05-21T10:54:26;26.90;73.40
292;DHT22;23311;48.776;9.162;2023-05-21T10:57:08;26.60;73.60
292;DHT22;23311;48.776;9.162;2023-05-21T10:59:43;26.10;74.40
292;DHT22;23311;48.776;9.162;2023-05-21T11:02:14;26.30;74.40
292;DHT22;23311;48.776;9.162;2023-05-21T11:04:43;27.00;73.20
292;DHT22;23311;48.776;9.162;2023-05-21T11:07:11;26.90;72.80
292;DHT22;23311;48.776;9.162;2023-05-21T11:09:40;27.00;72.90
292;DHT22;23311;48.776;9.162;2023-05-21T11:12:09;27.20;72.30
292;DHT22;23311;48.776;9.162;2023-05-21T11:14:39;27.60;71.70
292;DHT22;23311;48.776;9.162;2023-05-21T11:17:10;28.10;71.00
292;DHT22;23311;48.776;9.162;2023-05-21T11:19:40;28.00;71.10
292;DHT22;23311;48.776;9.162;2023-05-21T11:22:19;28.20;70.70
292;DHT22;23311;48.776;9.162;2023-05-21T11:24:48;27.80;71.40
292;DHT22;23311;48.776;9.162;2023-05-21T11:27:33;27.50;72.00
292;DHT22;23311;48.776;9.162;2023-05-21T11:30:05;26.70;73.60
292;DHT22;23311;48.776;9.162;2023-05-21T11:32:37;26.90;73.40
292;DHT22;23311;48.776;9.162;2023-05-21T11:35:06;26.90;73.20
292;DHT22;23311;48.776;9.162;2023-05-21T11:37:35;27.10;73.30
292;DHT22;23311;48.776;9.162;2023-05-21T11:40:17;27.40;72.50
292;DHT22;23311;48.776;9.162;2023-05-21T11:42:51;27.40;72.60
292;DHT22;23311;48.776;9.162;2023-05-21T11:45:20;27.40;72.60
292;DHT22;23311;48.776;9.162;2023-05-21T11:47:49;27.80;71.90
292;DHT22;23311;48.776;9.162;2023-05-21T11:50:18;27.50;72.40
292;DHT22;23311;48.776;9.162;2023-05-21T11:52:47;27.40;72.30
292;DHT22;23311;48.776;9.162;2023-05-21T11:55:20;27.60;72.10
292;DHT22;23311;48.776;9.162;2023-05-21T11:57:53;27.70;71.60
292;DHT22;23311;48.776;9.162;2023-05-21T12:00:22;27.30;72.10
292;DHT22;23311;48.776;9.162;2023-05-21T12:02:51;27.00;72.60
292;DHT22;23311;48.776;9.162;2023-05-21T12:05:22;27.10;72.70
292;DHT22;23311;48.776;9.162;2023-05-21T12:07:50;27.50;72.00
292;DHT22;23311;48.776;9.162;2023-05-21T12:10:21;27.40;72.00
292;DHT22;23311;48.776;9.162;2023-05-21T12:12:50;27.30;71.90
292;DHT22;23311;48.776;9.162;2023-05-21T12:15:25;27.30;72.50
292;DHT22;23311;48.776;9.162;2023-05-21T12:17:54;27.30;72.60
292;DHT22;23311;48.776;9.162;2023-05-21T12:20:24;27.60;71.30
292;DHT22;23311;48.776;9.162;2023-05-21T12:22:53;27.40;72.10
292;DHT22;23311;48.776;9.162;2023-05-21T12:25:23;27.20;72.00
292;DHT22;23311;48.776;9.162;2023-05-21T12:27:51;27.60;71.30
292;DHT22;23311;48.776;9.162;2023-05-21T12:30:25;27.90;70.40
292;DHT22;23311;48.776;9.162;2023-05-21T12:32:57;27.40;71.20
292;DHT22;23311;48.776;9.162;2023-05-21T12:35:25;27.20;71.30
292;DHT22;23311;48.776;9.162;2023-05-21T12:37:53;27.40;71.10
292;DHT22;23311;48.776;9.162;2023-05-21T12:40:33;27.50;70.60
292;DHT22;23311;48.776;9.162;2023-05-21T12:43:02;28.00;69.60
292;DHT22;23311;48.776;9.162;2023-05-21T12:45:32;28.10;69.60
292;DHT22;23311;48.776;9.162;2023-05-21T12:48:02;28.10;69.30
292;DHT22;23311;48.776;9.162;2023-05-21T12:50:32;27.60;70.30
292;DHT22;23311;48.776;9.162;2023-05-21T12:53:01;27.20;70.60
292;DHT22;23311;48.776;9.162;2023-05-21T12:55:30;27.40;70.40
292;DHT22;23311;48.776;9.162;2023-05-21T12:58:02;27.50;69.60
292;DHT22;23311;48.776;9.162;2023-05-21T13:00:35;27.50;69.90
292;DHT22;23311;48.776;9.162;2023-05-21T13:03:04;27.10;70.90
292;DHT22;23311;48.776;9.162;2023-05-21T13:05:33;27.30;70.70
292;DHT22;23311;48.776;9.162;2023-05-21T13:08:01;27.20;71.20
292;DHT22;23311;48.776;9.162;2023-05-21T13:10:29;27.50;70.00
292;DHT22;23311;48.776;9.162;2023-05-21T13:12:57;27.90;69.50
292;DHT22;23311;48.776;9.162;2023-05-21T13:15:26;27.80;69.10
292;DHT22;23311;48.776;9.162;2023-05-21T13:17:56;27.80;69.30
292;DHT22;23311;48.776;9.162;2023-05-21T13:20:27;28.00;69.60
292;DHT22;23311;48.776;9.162;2023-05-21T13:22:55;27.90;67.90
292;DHT22;23311;48.776;9.162;2023-05-21T13:25:25;28.10;67.20
292;DHT22;23311;48.776;9.162;2023-05-21T13:27:55;27.80;67.20
292;DHT22;23311;48.776;9.162;2023-05-21T13:30:24;28.00;66.40
292;DHT22;23311;48.776;9.162;2023-05-21T13:32:52;28.00;65.60
292;DHT22;23311;48.776;9.162;2023-05-21T13:35:22;28.10;65.80
292;DHT22;23311;48.776;9.162;2023-05-21T13:37:50;28.10;65.90
292;DHT22;23311;48.776;9.162;2023-05-21T13:40:19;28.20;65.40
292;DHT22;23311;48.776;9.162;2023-05-21T13:42:48;28.10;64.70
292;DHT22;23311;48.776;9.162;2023-05-21T13:45:18;27.90;65.40
292;DHT22;23311;48.776;9.162;2023-05-21T13:47:47;28.30;65.00
292;DHT22;23311;48.776;9.162;2023-05-21T13:50:15;28.70;63.50
292;DHT22;23311;48.776;9.162;2023-05-21T13:52:45;28.40;64.10
292;DHT22;23311;48.776;9.162;2023-05-21T13:55:13;28.80;63.50
292;DHT22;23311;48.776;9.162;2023-05-21T13:57:42;28.90;63.20
292;DHT22;23311;48.776;9.162;2023-05-21T14:00:12;29.40;62.80
292;DHT22;23311;48.776;9.162;2023-05-21T14:02:42;29.70;61.80
292;DHT22;23311;48.776;9.162;2023-05-21T14:05:11;29.80;61.90
292;DHT22;23311;48.776;9.162;2023-05-21T14:07:39;29.80;61.70
292;DHT22;23311;48.776;9.162;2023-05-21T14:10:09;29.70;62.00
292;DHT22;23311;48.776;9.162;2023-05-21T14:12:38;29.90;62.30
292;DHT22;23311;48.776;9.162;2023-05-21T14:15:08;29.70;62.50
292;DHT22;23311;48.776;9.162;2023-05-21T14:17:36;30.20;61.90
292;DHT22;23311;48.776;9.162;2023-05-21T14:20:07;30.60;61.10
292;DHT22;23311;48.776;9.162;2023-05-21T14:22:36;30.80;61.20
292;DHT22;23311;48.776;9.162;2023-05-21T14:25:05;29.60;63.20
292;DHT22;23311;48.776;9.162;2023-05-21T14:27:34;29.60;63.80
292;DHT22;23311;48.776;9.162;2023-05-21T14:30:04;29.70;63.40
292;DHT22;23311;48.776;9.162;2023-05-21T14:32:33;29.50;63.70
292;DHT22;23311;48.776;9.162;2023-05-21T14:35:02;29.80;63.70
292;DHT22;23311;48.776;9.162;2023-05-21T14:37:30;29.90;63.70
292;DHT22;23311;48.776;9.162;2023-05-21T14:39:58;30.10;63.20
292;DHT22;23311;48.776;9.162;2023-05-21T14:42:27;30.10;63.00
292;DHT22;23311;48.776;9.162;2023-05-21T14:44:56;30.20;62.10
292;DHT22;23311;48.776;9.162;2023-05-21T14:47:24;30.50;61.20
292;DHT22;23311;48.776;9.162;2023-05-21T14:49:52;30.30;61.70
292;DHT22;23311;48.776;9.162;2023-05-21T14:52:21;30.20;61.30
292;DHT22;23311;48.776;9.162;2023-05-21T14:54:49;30.10;61.60
292;DHT22;23311;48.776;9.162;2023-05-21T14:57:17;29.70;62.60
292;DHT22;23311;48.776;9.162;2023-05-21T14:59:45;29.50;63.00
292;DHT22;23311;48.776;9.162;2023-05-21T15:02:14;29.20;63.20
292;DHT22;23311;48.776;9.162;2023-05-21T15:04:42;28.90;63.70
292;DHT22;23311;48.776;9.162;2023-05-21T15:07:10;29.10;63.00
292;DHT22;23311;48.776;9.162;2023-05-21T15:09:38;29.00;62.00
292;DHT22;23311;48.776;9.162;2023-05-21T15:12:07;28.60;61.60
292;DHT22;23311;48.776;9.162;2023-05-21T15:14:35;28.20;60.40
292;DHT22;23311;48.776;9.162;2023-05-21T15:17:03;28.30;60.50
292;DHT22;23311;48.776;9.162;2023-05-21T15:19:32;28.40;60.30
292;DHT22;23311;48.776;9.162;2023-05-21T15:22:01;28.40;60.20
292;DHT22;23311;48.776;9.162;2023-05-21T15:24:29;28.60;60.20
292;DHT22;23311;48.776;9.162;2023-05-21T15:26:57;28.50;59.30
292;DHT22;23311;48.776;9.162;2023-05-21T15:29:25;28.30;59.80
292;DHT22;23311;48.776;9.162;2023-05-21T15:31:53;28.20;60.10
292;DHT22;23311;48.776;9.162;2023-05-21T15:34:21;28.50;60.00
292;DHT22;23311;48.776;9.162;2023-05-21T15:36:51;28.70;59.90
292;DHT22;23311;48.776;9.162;2023-05-21T15:39:19;29.10;58.00
292;DHT22;23311;48.776;9.162;2023-05-21T15:41:47;29.40;56.50
292;DHT22;23311;48.776;9.162;2023-05-21T15:44:16;29.60;56.10
292;DHT22;23311;48.776;9.162;2023-05-21T15:46:44;29.80;55.40
292;DHT22;23311;48.776;9.162;2023-05-21T15:49:12;29.90;54.50
292;DHT22;23311;48.776;9.162;2023-05-21T15:51:40;29.90;53.90
292;DHT22;23311;48.776;9.162;2023-05-21T15:54:10;29.30;55.30
292;DHT22;23311;48.776;9.162;2023-05-21T15:56:38;29.10;55.70
292;DHT22;23311;48.776;9.162;2023-05-21T15:59:07;29.00;55.70
292;DHT22;23311;48.776;9.162;2023-05-21T16:01:35;29.00;56.10
292;DHT22;23311;48.776;9.162;2023-05-21T16:04:03;29.10;56.70
292;DHT22;23311;48.776;9.162;2023-05-21T16:06:32;29.30;56.80
292;DHT22;23311;48.776;9.162;2023-05-21T16:09:00;29.10;57.60
292;DHT22;23311;48.776;9.162;2023-05-21T16:11:30;29.20;57.80
292;DHT22;23311;48.776;9.162;2023-05-21T16:13:58;29.10;57.70
292;DHT22;23311;48.776;9.162;2023-05-21T16:16:26;28.90;58.50
292;DHT22;23311;48.776;9.162;2023-05-21T16:18:55;28.60;60.00